QFA528 YSSY-YBBN
Flight info
| Callsign | QFA528 |
|---|---|
| Flight time | 1h 12m |
| Altitude | 37000 |
| Route | OLSEM Y193 BANDA H252 BN |
| Aircraft | A21N/M-SDE2E3FGHIRWXY/LB1 |
Departure
| Time | 2026-05-05 10:39 |
|---|---|
| Airport | Sydney Kingsford Smith International Airport (YSSY) |
Arrival
| Time | 2026-05-05 11:51 |
|---|---|
| Airport | Brisbane International Airport (YBBN) |
| Time | Latitude | Longitude | Altitude | Speed | Heading |
|---|---|---|---|---|---|
| 2026-05-05 10:21 | -33.93160 | 151.17911 | 35 ft | 0 kts | 191° |
| 2026-05-05 10:26 | -33.93159 | 151.17911 | 30 ft | 1 kts | 191° |
| 2026-05-05 10:26 | -33.93146 | 151.17914 | 30 ft | 2 kts | 191° |
| 2026-05-05 10:27 | -33.93132 | 151.17917 | 30 ft | 2 kts | 193° |
| 2026-05-05 10:27 | -33.93117 | 151.17922 | 30 ft | 2 kts | 216° |
| 2026-05-05 10:27 | -33.93106 | 151.17933 | 30 ft | 2 kts | 238° |
| 2026-05-05 10:27 | -33.93099 | 151.17950 | 30 ft | 2 kts | 257° |
| 2026-05-05 10:28 | -33.93096 | 151.17967 | 30 ft | 2 kts | 269° |
| 2026-05-05 10:28 | -33.93095 | 151.17985 | 30 ft | 2 kts | 260° |
| 2026-05-05 10:28 | -33.93093 | 151.18000 | 30 ft | 1 kts | 267° |
| 2026-05-05 10:28 | -33.93092 | 151.18007 | 30 ft | 0 kts | 277° |
| 2026-05-05 10:30 | -33.93090 | 151.17991 | 30 ft | 4 kts | 281° |
| 2026-05-05 10:30 | -33.93080 | 151.17922 | 30 ft | 12 kts | 279° |
| 2026-05-05 10:30 | -33.93061 | 151.17793 | 30 ft | 19 kts | 281° |
| 2026-05-05 10:31 | -33.93014 | 151.17637 | 30 ft | 16 kts | 279° |
| 2026-05-05 10:31 | -33.93013 | 151.17556 | 30 ft | 10 kts | 243° |
| 2026-05-05 10:31 | -33.93062 | 151.17522 | 30 ft | 10 kts | 197° |
| 2026-05-05 10:31 | -33.93153 | 151.17532 | 30 ft | 16 kts | 167° |
| 2026-05-05 10:32 | -33.93269 | 151.17563 | 30 ft | 19 kts | 168° |
| 2026-05-05 10:32 | -33.93409 | 151.17593 | 30 ft | 20 kts | 178° |
| 2026-05-05 10:32 | -33.93543 | 151.17600 | 30 ft | 19 kts | 166° |
| 2026-05-05 10:32 | -33.93661 | 151.17645 | 30 ft | 8 kts | 150° |
| 2026-05-05 10:33 | -33.93715 | 151.17680 | 30 ft | 9 kts | 166° |
| 2026-05-05 10:33 | -33.93790 | 151.17697 | 30 ft | 13 kts | 169° |
| 2026-05-05 10:33 | -33.93868 | 151.17764 | 30 ft | 15 kts | 142° |
| 2026-05-05 10:33 | -33.93982 | 151.17800 | 29 ft | 19 kts | 167° |
| 2026-05-05 10:34 | -33.94116 | 151.17836 | 29 ft | 21 kts | 168° |
| 2026-05-05 10:34 | -33.94260 | 151.17873 | 30 ft | 23 kts | 168° |
| 2026-05-05 10:34 | -33.94418 | 151.17911 | 30 ft | 23 kts | 178° |
| 2026-05-05 10:34 | -33.94559 | 151.17894 | 30 ft | 20 kts | 170° |
| 2026-05-05 10:35 | -33.94703 | 151.17929 | 30 ft | 22 kts | 168° |
| 2026-05-05 10:35 | -33.94857 | 151.17969 | 30 ft | 24 kts | 167° |
| 2026-05-05 10:35 | -33.95012 | 151.18011 | 30 ft | 23 kts | 168° |
| 2026-05-05 10:35 | -33.95103 | 151.18080 | 30 ft | 9 kts | 105° |
| 2026-05-05 10:36 | -33.95089 | 151.18162 | 30 ft | 15 kts | 78° |
| 2026-05-05 10:36 | -33.95061 | 151.18313 | 30 ft | 22 kts | 77° |
| 2026-05-05 10:36 | -33.95030 | 151.18486 | 30 ft | 17 kts | 76° |
| 2026-05-05 10:36 | -33.95004 | 151.18633 | 30 ft | 17 kts | 78° |
| 2026-05-05 10:37 | -33.94988 | 151.18720 | 28 ft | 7 kts | 78° |
| 2026-05-05 10:37 | -33.94979 | 151.18808 | 28 ft | 13 kts | 101° |
| 2026-05-05 10:37 | -33.95028 | 151.18846 | 26 ft | 6 kts | 168° |
| 2026-05-05 10:37 | -33.95035 | 151.18848 | 27 ft | 0 kts | 168° |
| 2026-05-05 10:38 | -33.95200 | 151.18889 | 25 ft | 69 kts | 168° |
| 2026-05-05 10:38 | -33.95982 | 151.19093 | 30 ft | 153 kts | 167° |
| 2026-05-05 10:38 | -33.97131 | 151.19419 | 592 ft | 176 kts | 166° |
| 2026-05-05 10:39 | -33.98278 | 151.20021 | 1443 ft | 192 kts | 141° |
| 2026-05-05 10:39 | -33.99208 | 151.21313 | 2304 ft | 212 kts | 126° |
| 2026-05-05 10:39 | -34.00033 | 151.22877 | 3152 ft | 231 kts | 123° |
| 2026-05-05 10:39 | -34.00934 | 151.24465 | 4163 ft | 237 kts | 131° |
| 2026-05-05 10:40 | -34.02120 | 151.25875 | 4720 ft | 241 kts | 142° |
| 2026-05-05 10:40 | -34.03492 | 151.27208 | 5296 ft | 262 kts | 143° |
| 2026-05-05 10:40 | -34.04938 | 151.28606 | 6219 ft | 272 kts | 143° |
| 2026-05-05 10:40 | -34.06440 | 151.30064 | 7119 ft | 280 kts | 143° |
| 2026-05-05 10:41 | -34.07953 | 151.31541 | 8186 ft | 281 kts | 142° |
| 2026-05-05 10:41 | -34.09487 | 151.33043 | 9185 ft | 286 kts | 142° |
| 2026-05-05 10:41 | -34.10893 | 151.34757 | 10160 ft | 293 kts | 123° |
| 2026-05-05 10:41 | -34.11624 | 151.37076 | 11018 ft | 301 kts | 98° |
| 2026-05-05 10:42 | -34.10444 | 151.41892 | 12716 ft | 313 kts | 49° |
| 2026-05-05 10:42 | -34.08935 | 151.43889 | 13237 ft | 332 kts | 44° |
| 2026-05-05 10:42 | -34.07238 | 151.45779 | 13982 ft | 337 kts | 35° |
| 2026-05-05 10:43 | -34.05213 | 151.47202 | 14799 ft | 338 kts | 21° |
| 2026-05-05 10:43 | -34.02971 | 151.48046 | 15589 ft | 341 kts | 12° |
| 2026-05-05 10:43 | -34.00600 | 151.48783 | 15869 ft | 362 kts | 13° |
| 2026-05-05 10:43 | -33.98116 | 151.49588 | 16332 ft | 374 kts | 13° |
| 2026-05-05 10:44 | -33.95594 | 151.50420 | 17106 ft | 377 kts | 13° |
| 2026-05-05 10:44 | -33.93051 | 151.51260 | 17850 ft | 381 kts | 13° |
| 2026-05-05 10:44 | -33.90484 | 151.52106 | 18581 ft | 384 kts | 13° |
| 2026-05-05 10:44 | -33.87887 | 151.52959 | 19227 ft | 387 kts | 13° |
| 2026-05-05 10:45 | -33.85289 | 151.53814 | 19900 ft | 389 kts | 13° |
| 2026-05-05 10:45 | -33.82692 | 151.54669 | 20546 ft | 392 kts | 12° |
| 2026-05-05 10:45 | -33.80018 | 151.55548 | 21202 ft | 394 kts | 12° |
| 2026-05-05 10:45 | -33.77394 | 151.56408 | 21829 ft | 397 kts | 12° |
| 2026-05-05 10:46 | -33.74721 | 151.57282 | 22454 ft | 400 kts | 12° |
| 2026-05-05 10:46 | -33.72015 | 151.58166 | 23087 ft | 403 kts | 12° |
| 2026-05-05 10:46 | -33.69294 | 151.59053 | 23718 ft | 405 kts | 11° |
| 2026-05-05 10:46 | -33.66580 | 151.60057 | 24225 ft | 410 kts | 16° |
| 2026-05-05 10:47 | -33.63942 | 151.61423 | 24737 ft | 416 kts | 22° |
| 2026-05-05 10:47 | -33.61404 | 151.63161 | 25221 ft | 423 kts | 28° |
| 2026-05-05 10:47 | -33.58947 | 151.65119 | 25678 ft | 426 kts | 28° |
| 2026-05-05 10:47 | -33.56458 | 151.67086 | 26131 ft | 429 kts | 28° |
| 2026-05-05 10:48 | -33.53953 | 151.69054 | 26590 ft | 431 kts | 28° |
| 2026-05-05 10:48 | -33.51398 | 151.70949 | 27016 ft | 431 kts | 23° |
| 2026-05-05 10:48 | -33.48710 | 151.72514 | 27447 ft | 429 kts | 17° |
| 2026-05-05 10:48 | -33.45946 | 151.73713 | 27868 ft | 426 kts | 11° |
| 2026-05-05 10:49 | -33.43084 | 151.74640 | 28279 ft | 427 kts | 8° |
| 2026-05-05 10:49 | -33.40210 | 151.75561 | 28695 ft | 429 kts | 8° |
| 2026-05-05 10:49 | -33.37320 | 151.76496 | 29091 ft | 431 kts | 8° |
| 2026-05-05 10:49 | -33.34422 | 151.77435 | 29473 ft | 433 kts | 8° |
| 2026-05-05 10:50 | -33.31510 | 151.78378 | 29844 ft | 435 kts | 8° |
| 2026-05-05 10:50 | -33.29564 | 151.79007 | 30088 ft | 436 kts | 8° |
| 2026-05-05 10:50 | -33.26628 | 151.79955 | 30430 ft | 438 kts | 8° |
| 2026-05-05 10:50 | -33.23686 | 151.80905 | 30761 ft | 439 kts | 8° |
| 2026-05-05 10:51 | -33.20734 | 151.81856 | 31088 ft | 441 kts | 7° |
| 2026-05-05 10:51 | -33.17835 | 151.82790 | 31430 ft | 441 kts | 7° |
| 2026-05-05 10:51 | -33.14870 | 151.83745 | 31859 ft | 440 kts | 7° |
| 2026-05-05 10:51 | -33.11921 | 151.84695 | 32296 ft | 438 kts | 7° |
| 2026-05-05 10:52 | -33.08980 | 151.85641 | 32740 ft | 436 kts | 7° |
| 2026-05-05 10:52 | -33.06053 | 151.86582 | 33171 ft | 435 kts | 6° |
| 2026-05-05 10:52 | -33.03138 | 151.87517 | 33557 ft | 433 kts | 6° |
| 2026-05-05 10:52 | -33.00227 | 151.88449 | 33954 ft | 432 kts | 6° |
| 2026-05-05 10:53 | -32.97362 | 151.89367 | 34323 ft | 430 kts | 6° |
| 2026-05-05 10:53 | -32.94472 | 151.90292 | 34663 ft | 428 kts | 6° |
| 2026-05-05 10:53 | -32.91601 | 151.91210 | 35011 ft | 426 kts | 6° |
| 2026-05-05 10:53 | -32.88739 | 151.92125 | 35364 ft | 424 kts | 6° |
| 2026-05-05 10:54 | -32.85895 | 151.93033 | 35718 ft | 421 kts | 6° |
| 2026-05-05 10:54 | -32.83069 | 151.93935 | 36077 ft | 418 kts | 6° |
| 2026-05-05 10:54 | -32.80261 | 151.94832 | 36446 ft | 415 kts | 5° |
| 2026-05-05 10:54 | -32.77480 | 151.95719 | 36785 ft | 412 kts | 5° |
| 2026-05-05 10:55 | -32.74738 | 151.96591 | 37035 ft | 412 kts | 5° |
| 2026-05-05 10:55 | -32.71964 | 151.97472 | 37173 ft | 414 kts | 5° |
| 2026-05-05 10:55 | -32.69159 | 151.98360 | 37185 ft | 419 kts | 5° |
| 2026-05-05 10:56 | -32.63446 | 152.00169 | 37187 ft | 430 kts | 5° |
| 2026-05-05 10:56 | -32.57596 | 152.02027 | 37187 ft | 440 kts | 6° |
| 2026-05-05 10:57 | -32.51626 | 152.03923 | 37188 ft | 447 kts | 6° |
| 2026-05-05 10:57 | -32.45610 | 152.05831 | 37191 ft | 451 kts | 6° |
| 2026-05-05 10:58 | -32.39525 | 152.07759 | 37191 ft | 454 kts | 6° |
| 2026-05-05 10:58 | -32.33400 | 152.09695 | 37193 ft | 456 kts | 5° |
| 2026-05-05 10:59 | -32.27263 | 152.11633 | 37188 ft | 457 kts | 5° |
| 2026-05-05 10:59 | -32.21103 | 152.13574 | 37191 ft | 458 kts | 5° |
| 2026-05-05 11:00 | -32.14974 | 152.15503 | 37191 ft | 458 kts | 5° |
| 2026-05-05 11:00 | -32.08804 | 152.17442 | 37189 ft | 459 kts | 5° |
| 2026-05-05 11:01 | -32.02618 | 152.19383 | 37189 ft | 459 kts | 5° |
| 2026-05-05 11:01 | -31.96440 | 152.21319 | 37186 ft | 459 kts | 5° |
| 2026-05-05 11:02 | -31.90262 | 152.23252 | 37193 ft | 460 kts | 5° |
| 2026-05-05 11:02 | -31.84077 | 152.25185 | 37190 ft | 459 kts | 5° |
| 2026-05-05 11:03 | -31.77902 | 152.27112 | 37196 ft | 459 kts | 5° |
| 2026-05-05 11:03 | -31.71744 | 152.29030 | 37191 ft | 460 kts | 5° |
| 2026-05-05 11:04 | -31.65553 | 152.30957 | 37188 ft | 460 kts | 5° |
| 2026-05-05 11:04 | -31.59361 | 152.32882 | 37193 ft | 460 kts | 5° |
| 2026-05-05 11:05 | -31.53168 | 152.34802 | 37195 ft | 460 kts | 5° |
| 2026-05-05 11:05 | -31.46983 | 152.36718 | 37193 ft | 460 kts | 5° |
| 2026-05-05 11:06 | -31.40785 | 152.38636 | 37193 ft | 460 kts | 5° |
| 2026-05-05 11:06 | -31.34620 | 152.40541 | 37191 ft | 461 kts | 5° |
| 2026-05-05 11:07 | -31.28418 | 152.42455 | 37196 ft | 461 kts | 5° |
| 2026-05-05 11:07 | -31.22217 | 152.44366 | 37196 ft | 461 kts | 4° |
| 2026-05-05 11:08 | -31.16019 | 152.46273 | 37200 ft | 460 kts | 4° |
| 2026-05-05 11:08 | -31.09829 | 152.48176 | 37186 ft | 460 kts | 4° |
| 2026-05-05 11:09 | -31.03653 | 152.50071 | 37186 ft | 461 kts | 4° |
| 2026-05-05 11:09 | -30.97445 | 152.51974 | 37185 ft | 462 kts | 4° |
| 2026-05-05 11:10 | -30.91221 | 152.53880 | 37183 ft | 462 kts | 4° |
| 2026-05-05 11:10 | -30.84988 | 152.55787 | 37184 ft | 462 kts | 4° |
| 2026-05-05 11:11 | -30.78776 | 152.57691 | 37182 ft | 463 kts | 5° |
| 2026-05-05 11:11 | -30.72593 | 152.59920 | 37185 ft | 465 kts | 7° |
| 2026-05-05 11:12 | -30.66462 | 152.62208 | 37183 ft | 465 kts | 7° |
| 2026-05-05 11:12 | -30.60281 | 152.64466 | 37180 ft | 465 kts | 6° |
| 2026-05-05 11:13 | -30.54085 | 152.66709 | 37182 ft | 465 kts | 6° |
| 2026-05-05 11:13 | -30.47951 | 152.68926 | 37179 ft | 465 kts | 6° |
| 2026-05-05 11:14 | -30.41768 | 152.71158 | 37179 ft | 464 kts | 6° |
| 2026-05-05 11:14 | -30.35615 | 152.73375 | 37178 ft | 461 kts | 6° |
| 2026-05-05 11:15 | -30.29480 | 152.75582 | 37178 ft | 461 kts | 6° |
| 2026-05-05 11:15 | -30.23335 | 152.77790 | 37180 ft | 462 kts | 6° |
| 2026-05-05 11:16 | -30.17195 | 152.79995 | 37176 ft | 461 kts | 6° |
| 2026-05-05 11:16 | -30.11099 | 152.82181 | 37178 ft | 461 kts | 6° |
| 2026-05-05 11:17 | -30.04977 | 152.84373 | 37161 ft | 461 kts | 6° |
| 2026-05-05 11:17 | -29.98852 | 152.86564 | 37160 ft | 460 kts | 6° |
| 2026-05-05 11:18 | -29.92734 | 152.88749 | 37157 ft | 460 kts | 6° |
| 2026-05-05 11:18 | -29.86655 | 152.90918 | 37154 ft | 459 kts | 6° |
| 2026-05-05 11:19 | -29.80555 | 152.93091 | 37153 ft | 459 kts | 6° |
| 2026-05-05 11:19 | -29.74456 | 152.95260 | 37151 ft | 458 kts | 6° |
| 2026-05-05 11:20 | -29.68370 | 152.97423 | 37152 ft | 457 kts | 5° |
| 2026-05-05 11:20 | -29.62292 | 152.99580 | 37148 ft | 456 kts | 5° |
| 2026-05-05 11:21 | -29.56222 | 153.01732 | 37145 ft | 456 kts | 5° |
| 2026-05-05 11:21 | -29.50161 | 153.03877 | 37147 ft | 455 kts | 5° |
| 2026-05-05 11:22 | -29.44150 | 153.06001 | 37148 ft | 454 kts | 5° |
| 2026-05-05 11:22 | -29.38111 | 153.08133 | 37145 ft | 454 kts | 5° |
| 2026-05-05 11:23 | -29.32068 | 153.10264 | 37146 ft | 453 kts | 5° |
| 2026-05-05 11:23 | -29.26031 | 153.12391 | 37143 ft | 453 kts | 5° |
| 2026-05-05 11:24 | -29.20003 | 153.14512 | 37143 ft | 453 kts | 5° |
| 2026-05-05 11:24 | -29.13975 | 153.16632 | 37140 ft | 452 kts | 5° |
| 2026-05-05 11:25 | -29.07965 | 153.18742 | 37136 ft | 452 kts | 5° |
| 2026-05-05 11:25 | -29.02016 | 153.20828 | 37137 ft | 451 kts | 5° |
| 2026-05-05 11:26 | -28.96002 | 153.22935 | 37133 ft | 451 kts | 5° |
| 2026-05-05 11:26 | -28.90031 | 153.25023 | 37136 ft | 451 kts | 5° |
| 2026-05-05 11:27 | -28.84028 | 153.27121 | 37140 ft | 451 kts | 5° |
| 2026-05-05 11:27 | -28.78014 | 153.29220 | 37133 ft | 451 kts | 5° |
| 2026-05-05 11:28 | -28.72015 | 153.31311 | 37134 ft | 450 kts | 5° |
| 2026-05-05 11:28 | -28.66050 | 153.33387 | 37134 ft | 450 kts | 5° |
| 2026-05-05 11:29 | -28.60042 | 153.35476 | 37134 ft | 450 kts | 5° |
| 2026-05-05 11:29 | -28.54071 | 153.37555 | 37122 ft | 441 kts | 5° |
| 2026-05-05 11:29 | -28.51180 | 153.38570 | 36897 ft | 430 kts | 4° |
| 2026-05-05 11:30 | -28.48318 | 153.39564 | 36419 ft | 426 kts | 4° |
| 2026-05-05 11:30 | -28.45494 | 153.40536 | 35904 ft | 421 kts | 5° |
| 2026-05-05 11:30 | -28.42709 | 153.41493 | 35401 ft | 416 kts | 5° |
| 2026-05-05 11:30 | -28.39982 | 153.42431 | 34905 ft | 412 kts | 5° |
| 2026-05-05 11:31 | -28.37262 | 153.43368 | 34402 ft | 407 kts | 5° |
| 2026-05-05 11:31 | -28.34514 | 153.44313 | 33795 ft | 405 kts | 6° |
| 2026-05-05 11:31 | -28.31853 | 153.45230 | 33178 ft | 403 kts | 6° |
| 2026-05-05 11:31 | -28.29183 | 153.46152 | 32570 ft | 401 kts | 6° |
| 2026-05-05 11:32 | -28.27377 | 153.46777 | 32162 ft | 399 kts | 6° |
| 2026-05-05 11:32 | -28.24761 | 153.47682 | 31578 ft | 394 kts | 6° |
| 2026-05-05 11:32 | -28.22146 | 153.48587 | 31004 ft | 391 kts | 5° |
| 2026-05-05 11:32 | -28.19553 | 153.49381 | 30439 ft | 378 kts | 359° |
| 2026-05-05 11:33 | -28.16999 | 153.49614 | 29826 ft | 360 kts | 348° |
| 2026-05-05 11:33 | -28.14558 | 153.49291 | 29175 ft | 346 kts | 339° |
| 2026-05-05 11:33 | -28.12291 | 153.48494 | 28542 ft | 337 kts | 332° |
| 2026-05-05 11:33 | -28.10106 | 153.47558 | 27928 ft | 335 kts | 333° |
| 2026-05-05 11:34 | -28.07931 | 153.46645 | 27321 ft | 333 kts | 333° |
| 2026-05-05 11:34 | -28.05766 | 153.45742 | 26725 ft | 331 kts | 333° |
| 2026-05-05 11:34 | -28.03634 | 153.44855 | 26154 ft | 330 kts | 333° |
| 2026-05-05 11:34 | -28.01482 | 153.43959 | 25585 ft | 328 kts | 333° |
| 2026-05-05 11:35 | -27.99343 | 153.43068 | 25027 ft | 328 kts | 333° |
| 2026-05-05 11:35 | -27.97203 | 153.42178 | 24479 ft | 327 kts | 334° |
| 2026-05-05 11:35 | -27.95063 | 153.41288 | 23941 ft | 327 kts | 334° |
| 2026-05-05 11:35 | -27.92934 | 153.40402 | 23352 ft | 327 kts | 334° |
| 2026-05-05 11:36 | -27.90788 | 153.39510 | 22714 ft | 327 kts | 334° |
| 2026-05-05 11:36 | -27.88655 | 153.38627 | 22100 ft | 326 kts | 334° |
| 2026-05-05 11:36 | -27.86525 | 153.37739 | 21502 ft | 326 kts | 334° |
| 2026-05-05 11:36 | -27.84422 | 153.36862 | 20909 ft | 325 kts | 335° |
| 2026-05-05 11:37 | -27.82281 | 153.35969 | 20323 ft | 324 kts | 335° |
| 2026-05-05 11:37 | -27.80170 | 153.35089 | 19753 ft | 323 kts | 335° |
| 2026-05-05 11:37 | -27.78090 | 153.34222 | 19203 ft | 322 kts | 336° |
| 2026-05-05 11:37 | -27.75944 | 153.33450 | 18657 ft | 323 kts | 342° |
| 2026-05-05 11:38 | -27.73725 | 153.32997 | 18068 ft | 325 kts | 349° |
| 2026-05-05 11:38 | -27.71454 | 153.33093 | 17450 ft | 332 kts | 7° |
| 2026-05-05 11:38 | -27.69209 | 153.33790 | 16844 ft | 334 kts | 11° |
| 2026-05-05 11:38 | -27.68458 | 153.34040 | 16632 ft | 334 kts | 11° |
| 2026-05-05 11:39 | -27.67289 | 153.34424 | 16334 ft | 333 kts | 11° |
| 2026-05-05 11:39 | -27.65195 | 153.35098 | 15789 ft | 333 kts | 11° |
| 2026-05-05 11:39 | -27.62955 | 153.35795 | 15208 ft | 332 kts | 11° |
| 2026-05-05 11:40 | -27.60734 | 153.36466 | 14632 ft | 327 kts | 11° |
| 2026-05-05 11:40 | -27.58583 | 153.37098 | 14086 ft | 320 kts | 11° |
| 2026-05-05 11:40 | -27.56437 | 153.37708 | 13484 ft | 314 kts | 11° |
| 2026-05-05 11:40 | -27.54328 | 153.38291 | 12867 ft | 310 kts | 11° |
| 2026-05-05 11:41 | -27.52246 | 153.38850 | 12265 ft | 305 kts | 11° |
| 2026-05-05 11:41 | -27.50382 | 153.39334 | 11731 ft | 302 kts | 11° |
| 2026-05-05 11:41 | -27.48339 | 153.39846 | 11143 ft | 299 kts | 11° |
| 2026-05-05 11:41 | -27.46311 | 153.40335 | 10578 ft | 296 kts | 11° |
| 2026-05-05 11:42 | -27.44300 | 153.40797 | 10008 ft | 294 kts | 11° |
| 2026-05-05 11:42 | -27.42302 | 153.41235 | 9403 ft | 292 kts | 11° |
| 2026-05-05 11:42 | -27.40313 | 153.41664 | 8794 ft | 291 kts | 11° |
| 2026-05-05 11:42 | -27.38329 | 153.42089 | 8198 ft | 289 kts | 11° |
| 2026-05-05 11:43 | -27.36355 | 153.42507 | 7610 ft | 287 kts | 11° |
| 2026-05-05 11:43 | -27.34396 | 153.42917 | 7034 ft | 286 kts | 11° |
| 2026-05-05 11:43 | -27.32438 | 153.43322 | 6465 ft | 285 kts | 11° |
| 2026-05-05 11:43 | -27.30478 | 153.43570 | 5854 ft | 284 kts | 355° |
| 2026-05-05 11:44 | -27.28610 | 153.42908 | 5426 ft | 282 kts | 327° |
| 2026-05-05 11:44 | -27.27183 | 153.41493 | 5098 ft | 276 kts | 311° |
| 2026-05-05 11:44 | -27.25895 | 153.39917 | 4848 ft | 270 kts | 311° |
| 2026-05-05 11:44 | -27.24649 | 153.38385 | 4649 ft | 261 kts | 311° |
| 2026-05-05 11:45 | -27.23442 | 153.36898 | 4453 ft | 253 kts | 311° |
| 2026-05-05 11:45 | -27.22274 | 153.35456 | 4233 ft | 246 kts | 311° |
| 2026-05-05 11:45 | -27.21206 | 153.34002 | 3993 ft | 236 kts | 296° |
| 2026-05-05 11:45 | -27.20840 | 153.32674 | 3825 ft | 232 kts | 269° |
| 2026-05-05 11:46 | -27.20947 | 153.30785 | 3621 ft | 244 kts | 261° |
| 2026-05-05 11:46 | -27.21128 | 153.28941 | 3401 ft | 237 kts | 261° |
| 2026-05-05 11:46 | -27.21313 | 153.27079 | 3179 ft | 240 kts | 261° |
| 2026-05-05 11:46 | -27.21500 | 153.25234 | 3007 ft | 233 kts | 261° |
| 2026-05-05 11:47 | -27.21844 | 153.23545 | 2997 ft | 216 kts | 240° |
| 2026-05-05 11:47 | -27.22765 | 153.22178 | 2997 ft | 218 kts | 218° |
| 2026-05-05 11:47 | -27.23973 | 153.21213 | 2944 ft | 209 kts | 207° |
| 2026-05-05 11:47 | -27.25239 | 153.20434 | 2670 ft | 206 kts | 204° |
| 2026-05-05 11:48 | -27.27743 | 153.18999 | 2159 ft | 193 kts | 204° |
| 2026-05-05 11:48 | -27.28913 | 153.18330 | 1877 ft | 183 kts | 204° |
| 2026-05-05 11:48 | -27.29999 | 153.17707 | 1646 ft | 167 kts | 204° |
| 2026-05-05 11:49 | -27.30999 | 153.17134 | 1417 ft | 156 kts | 204° |
| 2026-05-05 11:49 | -27.31991 | 153.16568 | 1226 ft | 165 kts | 205° |
| 2026-05-05 11:49 | -27.33024 | 153.15975 | 999 ft | 164 kts | 205° |
| 2026-05-05 11:49 | -27.34020 | 153.15405 | 791 ft | 159 kts | 205° |
| 2026-05-05 11:50 | -27.35015 | 153.14835 | 585 ft | 162 kts | 206° |
| 2026-05-05 11:50 | -27.36032 | 153.14250 | 370 ft | 164 kts | 206° |
| 2026-05-05 11:50 | -27.36877 | 153.13760 | 191 ft | 163 kts | 207° |
| 2026-05-05 11:50 | -27.37862 | 153.13200 | 28 ft | 157 kts | 207° |
| 2026-05-05 11:51 | -27.38667 | 153.12743 | 20 ft | 91 kts | 207° |
| 2026-05-05 11:51 | -27.39108 | 153.12494 | 18 ft | 63 kts | 207° |
| 2026-05-05 11:51 | -27.39477 | 153.12283 | 19 ft | 47 kts | 206° |
| 2026-05-05 11:51 | -27.39572 | 153.12117 | 18 ft | 23 kts | 275° |
| 2026-05-05 11:52 | -27.39561 | 153.12080 | 18 ft | 4 kts | 291° |
| 2026-05-05 11:52 | -27.39541 | 153.12036 | 18 ft | 9 kts | 297° |
| 2026-05-05 11:52 | -27.39504 | 153.11959 | 19 ft | 13 kts | 307° |
| 2026-05-05 11:52 | -27.39411 | 153.11952 | 18 ft | 16 kts | 24° |
| 2026-05-05 11:53 | -27.39299 | 153.12015 | 18 ft | 20 kts | 27° |
| 2026-05-05 11:53 | -27.39166 | 153.12093 | 18 ft | 23 kts | 26° |
| 2026-05-05 11:53 | -27.39032 | 153.12170 | 19 ft | 22 kts | 27° |
| 2026-05-05 11:53 | -27.38909 | 153.12209 | 18 ft | 12 kts | 340° |
| 2026-05-05 11:54 | -27.38848 | 153.12139 | 19 ft | 12 kts | 318° |
| 2026-05-05 11:54 | -27.38810 | 153.12071 | 20 ft | 10 kts | 287° |
| 2026-05-05 11:54 | -27.38796 | 153.12024 | 18 ft | 4 kts | 289° |
| 2026-05-05 11:54 | -27.38792 | 153.12007 | 18 ft | 1 kts | 285° |
| 2026-05-05 11:55 | -27.38792 | 153.12006 | 18 ft | 0 kts | 285° |